Time;durP1;ratioP1;P1;durP2;ratioP2;P2;SDS_P1;SDS_P2;PMS_P1;PMS_P2;Temp;Humidity;BMP_temperature;BMP_pressure;BME280_temperature;BME280_humidity;BME280_pressure;Samples;Min_cycle;Max_cycle;Signal;HPM_P1;HPM_P2
2023/05/20 00:01:58;;;;;;;15.38;4.85;;;;;;;9.76;100.00;102679.66;5034077;28;20440;-76
2023/05/20 00:04:23;;;;;;;9.65;4.55;;;;;;;9.73;100.00;102677.19;5034373;28;20041;-76
2023/05/20 00:06:48;;;;;;;12.35;4.40;;;;;;;9.68;100.00;102681.94;5033999;28;20025;-76
2023/05/20 00:09:15;;;;;;;11.23;4.43;;;;;;;9.64;100.00;102677.72;5034390;28;20033;-77
2023/05/20 00:11:41;;;;;;;11.98;4.72;;;;;;;9.62;100.00;102688.44;5033765;28;20481;-76
2023/05/20 00:14:06;;;;;;;11.35;4.57;;;;;;;9.56;100.00;102678.19;5033951;28;20037;-76
2023/05/20 00:16:31;;;;;;;11.75;4.03;;;;;;;9.52;100.00;102684.59;5032969;28;20041;-76
2023/05/20 00:18:57;;;;;;;9.27;4.25;;;;;;;9.52;100.00;102673.97;5033728;28;20076;-77
2023/05/20 00:21:22;;;;;;;13.02;4.72;;;;;;;9.55;100.00;102679.09;5033941;28;20389;-76
2023/05/20 00:23:47;;;;;;;10.80;4.32;;;;;;;9.57;100.00;102671.94;5033287;28;20136;-77
2023/05/20 00:26:13;;;;;;;11.63;4.35;;;;;;;9.56;100.00;102672.00;5033807;28;20045;-76
2023/05/20 00:28:38;;;;;;;7.28;3.90;;;;;;;9.60;100.00;102678.84;5032440;28;20044;-76
2023/05/20 00:31:04;;;;;;;19.98;4.88;;;;;;;9.58;100.00;102673.63;5033055;28;20104;-76
2023/05/20 00:33:29;;;;;;;13.25;4.80;;;;;;;9.60;100.00;102678.84;5033554;28;20037;-76
2023/05/20 00:35:55;;;;;;;9.88;4.50;;;;;;;9.56;100.00;102674.66;5033263;28;20064;-76
2023/05/20 00:38:20;;;;;;;7.93;4.38;;;;;;;9.53;100.00;102678.34;5049093;28;20033;-75
2023/05/20 00:40:46;;;;;;;13.70;5.03;;;;;;;9.50;100.00;102673.22;5033516;28;20124;-75
2023/05/20 00:43:11;;;;;;;9.32;4.18;;;;;;;9.49;100.00;102682.13;5032770;28;20060;-74
2023/05/20 00:45:37;;;;;;;7.40;4.40;;;;;;;9.48;100.00;102675.97;5033013;28;20044;-75
2023/05/20 00:48:03;;;;;;;15.63;5.55;;;;;;;9.45;100.00;102676.13;5033058;28;20461;-77
2023/05/20 00:50:30;;;;;;;9.98;4.82;;;;;;;9.42;100.00;102672.78;5033234;28;20034;-76
2023/05/20 00:52:55;;;;;;;9.25;4.75;;;;;;;9.38;100.00;102677.41;5032608;28;20041;-76
2023/05/20 00:55:21;;;;;;;11.52;4.70;;;;;;;9.39;100.00;102668.50;5033080;28;20030;-76
2023/05/20 00:57:48;;;;;;;13.10;4.72;;;;;;;9.37;100.00;102666.88;5032770;28;20111;-76
2023/05/20 01:00:14;;;;;;;9.70;4.70;;;;;;;9.36;100.00;102666.03;5032278;28;20061;-76
2023/05/20 01:02:39;;;;;;;13.30;4.47;;;;;;;9.37;100.00;102657.09;5032427;28;20430;-75
2023/05/20 01:05:05;;;;;;;11.88;4.88;;;;;;;9.32;100.00;102662.69;5032596;28;20037;-76
2023/05/20 01:07:31;;;;;;;15.02;5.28;;;;;;;9.27;100.00;102659.44;5033112;28;20042;-76
2023/05/20 01:09:58;;;;;;;8.07;4.60;;;;;;;9.26;100.00;102657.72;5032722;28;20102;-76
2023/05/20 01:12:30;;;;;;;13.13;5.32;;;;;;;9.22;100.00;102658.81;5032848;28;20060;-75
2023/05/20 01:15:08;;;;;;;10.80;4.97;;;;;;;9.16;100.00;102646.72;5032195;28;20169;-75
2023/05/20 01:17:38;;;;;;;14.52;4.80;;;;;;;9.10;100.00;102647.06;5031310;28;20451;-76
2023/05/20 01:20:06;;;;;;;12.73;4.93;;;;;;;9.04;100.00;102644.75;5032334;28;20037;-76
2023/05/20 01:22:31;;;;;;;15.40;5.80;;;;;;;8.99;100.00;102660.09;5032825;28;20079;-76
2023/05/20 01:24:56;;;;;;;11.50;4.90;;;;;;;8.91;100.00;102647.25;5032532;28;20373;-75
2023/05/20 01:27:22;;;;;;;8.18;4.57;;;;;;;8.85;100.00;102650.22;5032747;28;20033;-76
2023/05/20 01:29:49;;;;;;;8.82;5.40;;;;;;;8.82;100.00;102643.31;5032749;28;20107;-76
2023/05/20 01:32:21;;;;;;;12.60;5.35;;;;;;;8.84;100.00;102651.19;5032653;28;20132;-75
2023/05/20 01:34:47;;;;;;;;;;;;;;;8.78;100.00;102641.75;5048611;28;20029;-76
2023/05/20 01:37:14;;;;;;;12.88;5.72;;;;;;;8.77;100.00;102640.03;5032225;28;19913;-75
2023/05/20 01:39:41;;;;;;;12.85;5.60;;;;;;;8.75;100.00;102633.13;5032720;28;20033;-75
2023/05/20 01:42:08;;;;;;;12.45;5.30;;;;;;;8.72;100.00;102636.78;5031997;28;20469;-76
2023/05/20 01:44:34;;;;;;;11.98;5.43;;;;;;;8.77;100.00;102631.22;5032532;28;20033;-76
2023/05/20 01:47:03;;;;;;;8.80;5.03;;;;;;;8.76;100.00;102638.34;5032090;28;20411;-76
2023/05/20 01:49:28;;;;;;;10.27;5.40;;;;;;;8.74;100.00;102626.06;5032609;28;20450;-76
2023/05/20 01:51:54;;;;;;;15.27;5.80;;;;;;;8.73;100.00;102624.34;5032540;28;20067;-75
2023/05/20 01:54:19;;;;;;;13.95;5.88;;;;;;;8.70;100.00;102622.72;5032098;28;20041;-76
2023/05/20 01:56:45;;;;;;;14.82;5.68;;;;;;;8.70;100.00;102628.03;5032429;28;20069;-75
2023/05/20 01:59:11;;;;;;;17.13;6.45;;;;;;;8.69;100.00;102626.34;5032086;28;20131;-75
2023/05/20 02:01:36;;;;;;;17.60;6.07;;;;;;;8.69;100.00;102626.34;5032377;28;20505;-76
2023/05/20 02:04:02;;;;;;;11.00;5.55;;;;;;;8.68;100.00;102621.94;5031849;28;20389;-76
2023/05/20 02:06:27;;;;;;;11.98;5.28;;;;;;;8.72;100.00;102619.97;5032357;28;20462;-76
2023/05/20 02:08:53;;;;;;;14.25;5.78;;;;;;;8.75;100.00;102620.69;5033779;28;20026;-76
2023/05/20 02:11:18;;;;;;;13.93;5.43;;;;;;;8.78;100.00;102619.66;5038611;28;20636;-76
2023/05/20 02:13:43;;;;;;;15.30;6.50;;;;;;;8.78;100.00;102619.66;5038392;28;20057;-76
2023/05/20 02:16:09;;;;;;;10.68;5.35;;;;;;;8.78;100.00;102624.97;5038475;28;20600;-76
2023/05/20 02:18:34;;;;;;;15.73;5.97;;;;;;;8.79;100.00;102624.91;5038931;28;20029;-75
2023/05/20 02:21:03;;;;;;;10.88;4.90;;;;;;;8.79;100.00;102627.56;5038914;28;20108;-75
2023/05/20 02:23:29;;;;;;;14.05;5.72;;;;;;;8.79;100.00;102627.56;5054037;28;20044;-75
2023/05/20 02:25:55;;;;;;;13.30;5.68;;;;;;;8.77;100.00;102632.06;5038866;28;20159;-75
2023/05/20 02:28:20;;;;;;;14.38;5.03;;;;;;;8.74;100.00;102618.97;5038329;28;20064;-75
2023/05/20 02:30:45;;;;;;;13.27;5.28;;;;;;;8.76;100.00;102633.03;5038518;28;20116;-76
2023/05/20 02:33:12;;;;;;;12.82;5.88;;;;;;;8.75;100.00;102628.66;5038602;28;20480;-77
2023/05/20 02:35:38;;;;;;;10.48;5.00;;;;;;;8.74;100.00;102620.78;5038685;28;20034;-75
2023/05/20 02:38:03;;;;;;;12.23;6.18;;;;;;;8.69;100.00;102625.44;5038160;28;20031;-76
2023/05/20 02:40:29;;;;;;;10.35;5.18;;;;;;;8.68;100.00;102618.44;5038593;28;20026;-76
2023/05/20 02:42:54;;;;;;;13.20;5.25;;;;;;;8.67;100.00;102622.88;5038609;28;20026;-76
2023/05/20 02:45:19;;;;;;;15.23;5.80;;;;;;;8.62;100.00;102619.63;5038103;28;20091;-76
2023/05/20 02:47:45;;;;;;;12.00;6.00;;;;;;;8.61;100.00;102620.56;5038581;28;20422;-76
2023/05/20 02:50:10;;;;;;;21.52;6.82;;;;;;;8.59;100.00;102625.97;5038156;28;20517;-76
2023/05/20 02:52:36;;;;;;;16.73;5.65;;;;;;;8.63;100.00;102616.06;5038713;28;20120;-76
2023/05/20 02:55:01;;;;;;;13.93;5.78;;;;;;;8.68;100.00;102618.44;5038513;28;20090;-76
2023/05/20 02:57:27;;;;;;;13.52;6.22;;;;;;;8.69;100.00;102615.72;5037825;28;20414;-76
2023/05/20 02:59:53;;;;;;;12.95;5.38;;;;;;;8.72;100.00;102606.72;5038360;28;20434;-76
2023/05/20 03:02:18;;;;;;;11.20;5.75;;;;;;;8.75;100.00;102615.38;5037989;28;20087;-76
2023/05/20 03:04:45;;;;;;;14.85;5.82;;;;;;;8.79;100.00;102614.28;5038365;28;20029;-76
2023/05/20 03:07:11;;;;;;;15.02;5.55;;;;;;;8.82;100.00;102611.44;5038032;28;20030;-76
2023/05/20 03:09:36;;;;;;;12.90;5.40;;;;;;;8.86;100.00;102613.94;5038068;28;20528;-76
2023/05/20 03:12:03;;;;;;;11.38;5.70;;;;;;;8.89;100.00;102611.97;5037957;28;20399;-74
2023/05/20 03:14:28;;;;;;;10.98;5.72;;;;;;;8.91;100.00;102614.53;5037968;28;20049;-75
2023/05/20 03:16:56;;;;;;;11.40;5.57;;;;;;;8.92;100.00;102618.91;5038219;28;20039;-75
2023/05/20 03:19:22;;;;;;;17.13;5.78;;;;;;;8.96;100.00;102615.16;5036579;28;20490;-75
2023/05/20 03:21:49;;;;;;;11.40;5.60;;;;;;;9.00;100.00;102608.69;5034261;28;20090;-75
2023/05/20 03:24:14;;;;;;;14.98;5.97;;;;;;;9.06;100.00;102613.69;5034611;28;20022;-74
2023/05/20 03:26:43;;;;;;;11.57;5.28;;;;;;;9.08;100.00;102614.44;5035115;28;20044;-77
2023/05/20 03:29:11;;;;;;;11.95;5.68;;;;;;;9.10;100.00;102614.38;5034815;28;20124;-77
2023/05/20 03:31:36;;;;;;;11.68;6.00;;;;;;;9.15;100.00;102613.16;5035047;28;20409;-76
2023/05/20 03:34:02;;;;;;;9.45;5.45;;;;;;;9.18;100.00;102612.13;5034597;28;20041;-76
2023/05/20 03:36:27;;;;;;;16.30;5.78;;;;;;;9.22;100.00;102611.00;5034762;28;20489;-76
2023/05/20 03:38:53;;;;;;;12.50;5.30;;;;;;;9.26;100.00;102617.88;5034815;28;20398;-75
2023/05/20 03:41:18;;;;;;;9.07;5.03;;;;;;;9.29;100.00;102622.16;5033106;28;20033;-76
2023/05/20 03:43:44;;;;;;;15.85;5.60;;;;;;;9.29;100.00;102617.69;5034463;28;20474;-76
2023/05/20 03:46:09;;;;;;;10.85;5.65;;;;;;;9.32;100.00;102620.16;5033515;28;20417;-76
2023/05/20 03:48:34;;;;;;;13.82;5.43;;;;;;;9.33;100.00;102619.25;5034226;28;20449;-76
2023/05/20 03:51:00;;;;;;;14.23;5.47;;;;;;;9.35;100.00;102611.19;5033569;28;20088;-76
2023/05/20 03:53:26;;;;;;;11.75;5.82;;;;;;;9.35;100.00;102612.03;5034151;28;20036;-76
2023/05/20 03:55:51;;;;;;;16.20;6.40;;;;;;;9.35;100.00;102611.19;5034468;28;20065;-76
2023/05/20 03:58:17;;;;;;;12.38;5.93;;;;;;;9.30;100.00;102608.78;5034438;28;20041;-76
2023/05/20 04:00:42;;;;;;;13.15;5.97;;;;;;;9.27;100.00;102616.94;5034571;28;20057;-76
2023/05/20 04:03:08;;;;;;;18.88;6.35;;;;;;;9.25;100.00;102613.50;5034316;28;20030;-76
2023/05/20 04:05:35;;;;;;;15.05;5.57;;;;;;;9.20;100.00;102606.75;5034011;28;20037;-76
2023/05/20 04:08:00;;;;;;;9.52;5.70;;;;;;;9.13;100.00;102615.03;5034543;28;20036;-76
2023/05/20 04:10:25;;;;;;;10.55;6.47;;;;;;;9.10;100.00;102611.72;5033841;28;20045;-75
2023/05/20 04:12:52;;;;;;;10.73;5.88;;;;;;;9.05;100.00;102600.50;5032780;28;20056;-76
2023/05/20 04:15:18;;;;;;;12.82;5.80;;;;;;;9.01;100.00;102607.75;5033851;28;20056;-77
2023/05/20 04:17:47;;;;;;;14.50;6.13;;;;;;;8.97;100.00;102607.09;5034273;28;20075;-76
2023/05/20 04:20:13;;;;;;;14.07;6.03;;;;;;;8.95;100.00;102602.81;5034048;28;20037;-77
2023/05/20 04:22:38;;;;;;;14.85;6.93;;;;;;;8.91;100.00;102598.59;5033680;28;20138;-77
2023/05/20 04:25:05;;;;;;;16.55;6.40;;;;;;;8.92;100.00;102613.59;5032519;28;20545;-77
2023/05/20 04:27:32;;;;;;;11.40;6.40;;;;;;;8.99;100.00;102609.66;5033488;28;20045;-76
2023/05/20 04:29:58;;;;;;;10.40;6.22;;;;;;;9.11;100.00;102611.63;5033773;28;20053;-76
2023/05/20 04:32:23;;;;;;;17.88;6.38;;;;;;;9.22;100.00;102604.84;5031868;28;20033;-77
2023/05/20 04:34:49;;;;;;;16.35;6.55;;;;;;;9.30;100.00;102618.53;5033879;28;20029;-76
2023/05/20 04:37:14;;;;;;;16.42;6.70;;;;;;;9.36;100.00;102612.91;5033814;28;20025;-76
2023/05/20 04:39:42;;;;;;;13.73;6.40;;;;;;;9.45;100.00;102619.47;5033367;28;20324;-77
2023/05/20 04:42:07;;;;;;;11.32;6.28;;;;;;;9.51;100.00;102619.97;5033629;28;20059;-76
2023/05/20 04:44:33;;;;;;;14.07;6.13;;;;;;;9.58;100.00;102607.19;5032990;28;20037;-76
2023/05/20 04:46:58;;;;;;;10.63;5.75;;;;;;;9.69;100.00;102612.75;5033411;28;20414;-76
2023/05/20 04:49:28;;;;;;;14.70;5.97;;;;;;;9.82;100.00;102606.69;5032678;28;20454;-75
2023/05/20 04:51:54;;;;;;;7.05;4.95;;;;;;;9.95;100.00;102606.81;5033563;28;20025;-75
2023/05/20 04:54:20;;;;;;;20.92;6.30;;;;;;;10.05;100.00;102603.50;5032746;28;20056;-75
2023/05/20 04:56:45;;;;;;;12.25;5.40;;;;;;;10.15;100.00;102600.28;5033170;28;20512;-75
2023/05/20 04:59:11;;;;;;;16.00;5.60;;;;;;;10.22;100.00;102604.28;5033118;28;20046;-77
2023/05/20 05:01:37;;;;;;;9.77;5.20;;;;;;;10.31;100.00;102609.03;5032696;28;20037;-76
2023/05/20 05:04:02;;;;;;;10.32;5.40;;;;;;;10.39;100.00;102606.81;5033083;28;20427;-76
2023/05/20 05:06:27;;;;;;;18.75;5.35;;;;;;;10.45;100.00;102602.06;5032567;28;20090;-77
2023/05/20 05:08:53;;;;;;;9.80;5.20;;;;;;;10.48;100.00;102604.50;5032719;28;20046;-77
2023/05/20 05:11:18;;;;;;;11.75;5.28;;;;;;;10.48;100.00;102600.06;5033213;28;20460;-77
2023/05/20 05:13:44;;;;;;;12.68;5.28;;;;;;;10.48;100.00;102601.84;5032676;28;20050;-77
2023/05/20 05:16:09;;;;;;;14.18;5.20;;;;;;;10.45;100.00;102602.94;5033060;28;20506;-76
2023/05/20 05:18:35;;;;;;;12.80;5.45;;;;;;;10.41;100.00;102594.25;5032580;28;20108;-75
2023/05/20 05:21:05;;;;;;;12.68;5.80;;;;;;;10.40;100.00;102603.22;5031742;28;20466;-75
2023/05/20 05:23:31;;;;;;;13.23;5.35;;;;;;;10.44;100.00;102598.53;5032206;28;20021;-77
2023/05/20 05:25:56;;;;;;;15.25;5.07;;;;;;;10.54;100.00;102601.50;5032720;28;20367;-74
2023/05/20 05:28:22;;;;;;;11.98;5.72;;;;;;;10.66;100.00;102600.72;5032555;28;20470;-75
2023/05/20 05:30:47;;;;;;;15.52;6.20;;;;;;;10.81;100.00;102596.25;5032225;28;20037;-75
2023/05/20 05:33:16;;;;;;;9.98;5.80;;;;;;;10.89;100.00;102593.91;5032226;28;20507;-76
2023/05/20 05:35:42;;;;;;;9.82;5.28;;;;;;;10.94;100.00;102596.28;5031805;28;20150;-75
2023/05/20 05:38:07;;;;;;;14.93;5.95;;;;;;;10.88;100.00;102597.56;5032495;28;20037;-75
2023/05/20 05:40:33;;;;;;;12.57;5.25;;;;;;;10.81;100.00;102598.91;5032128;28;20034;-76
2023/05/20 05:42:58;;;;;;;17.50;5.75;;;;;;;10.78;100.00;102599.09;5032341;28;20082;-75
2023/05/20 05:45:24;;;;;;;12.23;5.55;;;;;;;10.82;100.00;102592.59;5031672;28;20040;-76
2023/05/20 05:47:49;;;;;;;9.02;5.65;;;;;;;10.94;100.00;102605.16;5032085;28;20030;-75
2023/05/20 05:50:15;;;;;;;15.35;5.93;;;;;;;11.09;100.00;102595.31;5047594;28;20474;-75
2023/05/20 05:52:40;;;;;;;13.90;5.22;;;;;;;11.22;100.00;102594.50;5031994;28;20036;-75
2023/05/20 05:55:06;;;;;;;12.52;5.55;;;;;;;11.27;100.00;102597.72;5032387;28;20033;-75
2023/05/20 05:57:32;;;;;;;18.92;5.97;;;;;;;11.22;100.00;102595.34;5031872;28;20041;-75
2023/05/20 05:59:57;;;;;;;9.70;5.20;;;;;;;11.20;100.00;102586.63;5032283;28;20039;-75
2023/05/20 06:02:23;;;;;;;15.73;6.00;;;;;;;11.20;100.00;102591.94;5032108;28;20045;-76
2023/05/20 06:04:48;;;;;;;15.52;6.15;;;;;;;11.28;100.00;102594.09;5031743;28;20033;-76
2023/05/20 06:07:14;;;;;;;16.80;5.80;;;;;;;11.37;100.00;102600.63;5032298;28;20025;-76
2023/05/20 06:09:39;;;;;;;14.18;5.57;;;;;;;11.46;100.00;102597.34;5031980;28;20029;-77
2023/05/20 06:12:05;;;;;;;13.65;6.05;;;;;;;11.57;100.00;102596.63;5032363;28;20040;-75
2023/05/20 06:14:31;;;;;;;16.20;5.82;;;;;;;11.71;100.00;102596.56;5031991;28;20061;-75
2023/05/20 06:16:56;;;;;;;15.23;5.60;;;;;;;11.85;100.00;102592.97;5032515;28;20030;-74
2023/05/20 06:19:22;;;;;;;10.25;5.65;;;;;;;11.82;100.00;102590.50;5031874;28;20060;-77
2023/05/20 06:21:47;;;;;;;16.23;6.18;;;;;;;11.78;100.00;102594.38;5031874;28;20034;-74
2023/05/20 06:24:12;;;;;;;10.20;4.97;;;;;;;11.76;100.00;102594.47;5032231;28;20064;-75
2023/05/20 06:26:38;;;;;;;12.05;5.38;;;;;;;11.74;100.00;102593.69;5031852;28;20121;-75
2023/05/20 06:29:03;;;;;;;13.23;5.80;;;;;;;11.81;100.00;102587.00;5032352;28;20065;-76
2023/05/20 06:31:29;;;;;;;14.43;5.82;;;;;;;11.92;100.00;102596.06;5032011;28;20033;-75
2023/05/20 06:33:54;;;;;;;11.13;5.47;;;;;;;12.06;100.00;102592.47;5031627;28;20039;-76
2023/05/20 06:36:20;;;;;;;14.43;5.95;;;;;;;12.27;100.00;102585.66;5032067;28;20087;-74
2023/05/20 06:38:46;;;;;;;12.68;5.47;;;;;;;12.67;100.00;102579.28;5031563;28;20033;-75
2023/05/20 06:41:11;;;;;;;11.13;5.28;;;;;;;13.12;100.00;102584.94;5031796;28;20544;-75
2023/05/20 06:43:37;;;;;;;11.25;5.18;;;;;;;13.44;100.00;102587.06;5031769;28;20034;-76
2023/05/20 06:46:02;;;;;;;12.77;4.50;;;;;;;13.59;100.00;102574.34;5032281;28;20069;-74
2023/05/20 06:48:27;;;;;;;10.23;5.07;;;;;;;13.69;100.00;102583.38;5030695;28;20415;-75
2023/05/20 06:50:53;;;;;;;11.93;5.07;;;;;;;13.83;100.00;102576.13;5031573;28;20129;-76
2023/05/20 06:53:18;;;;;;;17.52;5.22;;;;;;;13.90;100.00;102580.88;5032097;28;20030;-75
2023/05/20 06:55:43;;;;;;;7.72;4.68;;;;;;;13.98;100.00;102582.94;5033201;28;20045;-76
2023/05/20 06:58:09;;;;;;;10.48;4.55;;;;;;;14.02;100.00;102580.91;5035569;28;20033;-76
2023/05/20 07:00:34;;;;;;;9.25;4.88;;;;;;;13.99;100.00;102575.75;5035294;28;20164;-75
2023/05/20 07:02:59;;;;;;;8.45;4.93;;;;;;;13.92;100.00;102572.72;5035644;28;20048;-76
2023/05/20 07:05:27;;;;;;;12.77;4.80;;;;;;;14.00;100.00;102569.44;5035593;28;20029;-76
2023/05/20 07:07:53;;;;;;;9.68;4.53;;;;;;;14.12;100.00;102571.16;5034917;28;20034;-76
2023/05/20 07:10:18;;;;;;;12.75;4.55;;;;;;;14.25;100.00;102568.38;5035396;28;20087;-76
2023/05/20 07:12:44;;;;;;;10.43;4.68;;;;;;;14.46;100.00;102574.72;5034748;28;20141;-74
2023/05/20 07:15:09;;;;;;;9.68;4.25;;;;;;;14.67;100.00;102563.28;5035460;28;20385;-74
2023/05/20 07:17:35;;;;;;;8.73;4.28;;;;;;;14.81;100.00;102559.50;5035197;28;20041;-77
2023/05/20 07:20:01;;;;;;;7.72;3.83;;;;;;;14.95;100.00;102563.72;5035193;28;20053;-75
2023/05/20 07:22:26;;;;;;;6.57;4.40;;;;;;;15.01;100.00;102559.69;5035118;28;20124;-75
2023/05/20 07:24:52;;;;;;;7.82;3.90;;;;;;;15.12;100.00;102557.81;5034655;28;20045;-76
2023/05/20 07:27:17;;;;;;;10.35;3.97;;;;;;;15.27;100.00;102550.34;5035128;28;20061;-75
2023/05/20 07:29:43;;;;;;;13.07;4.15;;;;;;;15.43;100.00;102549.03;5034449;28;20030;-76
2023/05/20 07:32:09;;;;;;;8.85;3.85;;;;;;;15.44;100.00;102545.38;5034960;28;20030;-75
2023/05/20 07:34:34;;;;;;;12.90;4.40;;;;;;;15.46;100.00;102546.94;5034870;28;20061;-75
2023/05/20 07:37:00;;;;;;;9.48;4.22;;;;;;;15.66;100.00;102549.78;5034653;28;20045;-75
2023/05/20 07:39:25;;;;;;;8.82;4.10;;;;;;;15.80;100.00;102549.47;5035367;28;20487;-76
2023/05/20 07:41:51;;;;;;;8.50;3.47;;;;;;;16.02;100.00;102547.63;5034547;28;20037;-77
2023/05/20 07:44:21;;;;;;;6.03;3.70;;;;;;;16.22;100.00;102552.06;5035038;28;20037;-76
2023/05/20 07:46:46;;;;;;;7.50;3.60;;;;;;;16.26;100.00;102539.25;5034463;28;20084;-77
2023/05/20 07:49:12;;;;;;;3.92;2.78;;;;;;;16.32;100.00;102540.53;5034644;28;20037;-76
2023/05/20 07:51:37;;;;;;;5.82;3.45;;;;;;;16.36;100.00;102536.56;5033608;28;20037;-76
2023/05/20 07:54:02;;;;;;;4.75;3.03;;;;;;;16.54;100.00;102534.97;5032922;28;20048;-76
2023/05/20 07:56:28;;;;;;;4.15;3.25;;;;;;;16.63;100.00;102532.41;5034570;28;20029;-77
2023/05/20 07:58:58;;;;;;;7.07;3.47;;;;;;;16.68;100.00;102536.41;5034189;28;20111;-76
2023/05/20 08:01:25;;;;;;;17.30;4.00;;;;;;;16.79;100.00;102532.72;5034654;28;20079;-75
2023/05/20 08:03:50;;;;;;;9.00;3.30;;;;;;;16.91;100.00;102528.97;5032534;28;20033;-75
2023/05/20 08:06:16;;;;;;;8.98;3.35;;;;;;;17.15;100.00;102524.16;5034329;28;20096;-76
2023/05/20 08:08:41;;;;;;;12.98;3.63;;;;;;;17.11;100.00;102523.63;5033451;28;20026;-78
2023/05/20 08:11:07;;;;;;;8.23;3.35;;;;;;;17.13;100.00;102524.31;5034498;28;20061;-76
2023/05/20 08:13:33;;;;;;;4.60;3.20;;;;;;;17.27;100.00;102537.34;5034300;28;20049;-76
2023/05/20 08:15:58;;;;;;;4.95;2.70;;;;;;;17.46;100.00;102535.63;5034094;28;20041;-76
2023/05/20 08:18:24;;;;;;;7.18;2.65;;;;;;;17.67;100.00;102529.22;5034463;28;20040;-76
2023/05/20 08:20:50;;;;;;;4.43;2.70;;;;;;;17.85;100.00;102532.84;5033463;28;20033;-76
2023/05/20 08:23:15;;;;;;;5.72;3.00;;;;;;;18.20;100.00;102530.47;5033901;28;20139;-75
2023/05/20 08:25:41;;;;;;;6.57;3.15;;;;;;;18.25;100.00;102528.22;5033939;28;20026;-76
2023/05/20 08:28:06;;;;;;;6.68;3.22;;;;;;;18.29;100.00;102533.16;5033659;28;20104;-76
2023/05/20 08:30:33;;;;;;;9.63;3.28;;;;;;;18.47;100.00;102525.13;5033921;28;20432;-76
2023/05/20 08:32:58;;;;;;;6.05;2.95;;;;;;;18.64;92.26;102522.59;5033483;28;20470;-75
2023/05/20 08:35:24;;;;;;;9.05;3.00;;;;;;;18.70;98.79;102522.00;5034077;28;20092;-75
2023/05/20 08:37:49;;;;;;;5.05;2.72;;;;;;;18.88;96.22;102524.72;5033422;28;20033;-76
2023/05/20 08:40:15;;;;;;;6.63;2.72;;;;;;;19.02;100.00;102516.13;5033730;28;20038;-75
2023/05/20 08:42:43;;;;;;;6.43;2.60;;;;;;;19.24;91.27;102510.41;5033663;28;20078;-75
2023/05/20 08:45:14;;;;;;;8.52;2.58;;;;;;;19.53;92.43;102512.81;5033249;28;20025;-76
2023/05/20 08:47:41;;;;;;;10.88;2.67;;;;;;;19.64;79.07;102506.31;5033954;28;20022;-77
2023/05/20 08:50:09;;;;;;;3.55;2.35;;;;;;;19.76;74.09;102502.34;5033161;28;20038;-76
2023/05/20 08:52:37;;;;;;;9.93;3.08;;;;;;;19.66;80.02;102498.88;5033439;28;20048;-76
2023/05/20 08:55:06;;;;;;;4.18;2.50;;;;;;;19.98;78.53;102502.84;5033054;28;20033;-76
2023/05/20 08:57:33;;;;;;;5.78;3.03;;;;;;;20.21;76.97;102505.78;5033779;28;20107;-75
2023/05/20 08:59:59;;;;;;;4.70;2.60;;;;;;;20.58;65.99;102497.28;5033003;28;20029;-76
2023/05/20 09:02:24;;;;;;;10.82;2.47;;;;;;;20.76;63.47;102508.00;5048568;28;20041;-76
2023/05/20 09:04:51;;;;;;;9.05;2.83;;;;;;;20.90;58.65;102502.97;5032767;28;20034;-77
2023/05/20 09:07:27;;;;;;;7.82;2.42;;;;;;;21.36;58.11;102497.91;5033137;28;20474;-76
2023/05/20 09:09:52;;;;;;;7.20;2.40;;;;;;;21.67;59.17;102494.50;5032906;28;20041;-77
2023/05/20 09:12:20;;;;;;;5.75;2.10;;;;;;;22.35;54.38;102501.22;5032936;28;20117;-77
2023/05/20 09:14:45;;;;;;;3.67;2.20;;;;;;;22.58;52.40;102491.44;5033212;28;20057;-77
2023/05/20 09:17:11;;;;;;;3.72;2.47;;;;;;;22.62;51.04;102492.78;5032428;28;20099;-77
2023/05/20 09:19:37;;;;;;;5.22;2.20;;;;;;;23.41;51.64;102493.38;5031965;28;20037;-77
2023/05/20 09:22:03;;;;;;;5.13;1.80;;;;;;;23.38;48.59;102484.75;5032554;28;20044;-76
2023/05/20 09:24:29;;;;;;;4.03;2.10;;;;;;;23.23;46.60;102488.28;5032885;28;20048;-76
2023/05/20 09:26:55;;;;;;;2.55;2.03;;;;;;;23.50;48.16;102487.88;5032529;28;20473;-77
2023/05/20 09:29:20;;;;;;;4.82;1.95;;;;;;;23.57;46.24;102486.94;5033390;28;20065;-76
2023/05/20 09:31:47;;;;;;;6.50;2.03;;;;;;;24.04;48.06;102481.34;5032803;28;20108;-77
2023/05/20 09:34:13;;;;;;;5.40;2.35;;;;;;;24.08;45.57;102479.91;5032281;28;20045;-76
2023/05/20 09:36:39;;;;;;;4.10;2.38;;;;;;;24.48;47.72;102480.38;5032684;28;20064;-76
2023/05/20 09:39:08;;;;;;;6.45;2.25;;;;;;;24.59;43.26;102477.19;5032380;28;20393;-75
2023/05/20 09:42:16;;;;;;;6.38;2.50;;;;;;;24.29;45.08;102470.97;5032715;28;20090;-76
2023/05/20 09:44:41;;;;;;;6.88;1.90;;;;;;;24.69;46.48;102468.69;5031725;28;20079;-77
2023/05/20 09:47:08;;;;;;;3.95;1.83;;;;;;;24.75;45.73;102467.94;5032253;28;20029;-75
2023/05/20 09:49:35;;;;;;;5.22;2.08;;;;;;;25.06;43.97;102460.47;5032743;28;20108;-76
2023/05/20 09:52:01;;;;;;;4.75;2.13;;;;;;;25.34;42.31;102464.06;5032209;28;20040;-76
2023/05/20 09:54:28;;;;;;;12.98;2.22;;;;;;;24.74;43.23;102466.25;5032673;28;20041;-75
2023/05/20 09:56:56;;;;;;;6.05;1.80;;;;;;;24.83;43.00;102464.25;5032151;28;20038;-77
2023/05/20 09:59:22;;;;;;;3.63;2.00;;;;;;;24.35;42.68;102456.63;5032666;28;20087;-75
2023/05/20 10:01:47;;;;;;;3.03;2.00;;;;;;;24.43;43.67;102458.38;5032245;28;20037;-76
2023/05/20 10:04:16;;;;;;;5.75;2.20;;;;;;;24.09;42.01;102451.69;5031876;28;20034;-76
2023/05/20 10:07:04;;;;;;;6.97;2.00;;;;;;;24.06;43.44;102450.19;5032371;28;20030;-76
2023/05/20 10:09:39;;;;;;;5.43;2.00;;;;;;;24.35;44.53;102450.31;5032505;28;20108;-75
2023/05/20 10:12:27;;;;;;;8.68;2.10;;;;;;;23.74;44.22;102448.72;5031719;28;20033;-76
2023/05/20 10:15:21;;;;;;;7.43;2.30;;;;;;;24.38;42.89;102445.34;5032495;28;20489;-77
2023/05/20 10:17:56;;;;;;;4.65;2.25;;;;;;;24.70;40.66;102442.34;5031148;28;20052;-76
2023/05/20 10:20:21;;;;;;;3.80;1.88;;;;;;;24.65;42.89;102434.78;5047612;28;20485;-77
2023/05/20 10:22:56;;;;;;;5.38;2.42;;;;;;;24.56;41.62;102433.19;5031858;28;20112;-76
2023/05/20 10:25:25;;;;;;;4.55;2.20;;;;;;;24.68;42.64;102439.81;5032066;28;20029;-76
2023/05/20 10:27:51;;;;;;;6.07;2.17;;;;;;;24.90;40.19;102435.22;5032193;28;20116;-77
2023/05/20 10:30:20;;;;;;;5.68;1.95;;;;;;;25.49;40.04;102430.44;5032468;28;20112;-76
2023/05/20 10:32:55;;;;;;;5.10;1.80;;;;;;;26.19;42.27;102438.53;5036213;28;20465;-76
2023/05/20 10:35:25;;;;;;;8.98;2.13;;;;;;;25.81;39.63;102419.88;5035826;28;20030;-76
2023/05/20 10:37:51;;;;;;;5.85;1.80;;;;;;;25.73;37.56;102425.53;5036033;28;20548;-76
2023/05/20 10:40:18;;;;;;;3.40;1.65;;;;;;;24.68;37.38;102419.91;5035696;28;20045;-76
2023/05/20 10:42:44;;;;;;;6.35;1.80;;;;;;;25.57;40.13;102419.34;5035671;28;20029;-76
2023/05/20 10:45:11;;;;;;;5.88;1.80;;;;;;;25.58;38.36;102403.84;5035367;28;20029;-75
2023/05/20 10:47:41;;;;;;;2.63;2.22;;;;;;;25.89;39.61;102411.56;5035637;28;20078;-76
2023/05/20 10:50:07;;;;;;;11.10;2.25;;;;;;;26.32;37.72;102410.44;5035317;28;20032;-76
2023/05/20 10:52:35;;;;;;;4.40;1.90;;;;;;;26.22;38.88;102398.03;5035734;28;20408;-76
2023/05/20 10:55:01;;;;;;;4.57;1.80;;;;;;;25.58;38.11;102412.03;5035513;28;20053;-78
2023/05/20 10:57:28;;;;;;;11.48;1.90;;;;;;;24.91;37.35;102404.22;5035761;28;20140;-75
2023/05/20 10:59:54;;;;;;;5.82;1.90;;;;;;;25.37;37.35;102396.63;5035521;28;20040;-76
2023/05/20 11:02:27;;;;;;;6.03;1.65;;;;;;;25.55;40.46;102401.53;5035049;28;20037;-75
2023/05/20 11:04:55;;;;;;;4.43;1.83;;;;;;;25.62;39.59;102394.25;5035523;28;20039;-76
2023/05/20 11:07:38;;;;;;;5.18;2.00;;;;;;;25.86;40.95;102395.59;5034866;28;20037;-76
2023/05/20 11:10:07;;;;;;;3.10;1.80;;;;;;;25.82;35.72;102392.44;5035324;28;20528;-75
2023/05/20 11:12:33;;;;;;;2.95;1.80;;;;;;;26.03;36.64;102380.56;5035479;28;20132;-76
2023/05/20 11:14:58;;;;;;;7.57;1.92;;;;;;;26.54;37.51;102384.69;5034953;28;20053;-76
2023/05/20 11:17:23;;;;;;;4.05;1.77;;;;;;;27.47;37.63;102377.47;5017145;28;20029;-76